Impacts TAF Board
For situational awareness. Not to be used for flight planning purposes.
IDs:

KDMN - Deming Muni, NM, US

Issued at 1120 UTC 30 Oct 2020
Updated at 1646 UTC 30 Oct 2020
Potential Impact None Slight Moderate High
Time1553Z 30/17Z 30/18Z 30/19Z 30/20Z 30/21Z 30/22Z 30/23Z 31/00Z 31/01Z 31/02Z 31/03Z 31/04Z 31/05Z>>
Type OBS PRVL PRVL PRVL PRVL PRVL PRVL PRVL PRVL PRVL PRVL PRVL PRVL PRVL
VIS 10 >6 >6 >6 >6 >6 >6 >6 >6 >6 >6 >6 >6 >6
CIG -- -- -- -- -- -- -- -- -- -- -- -- -- --
Cover CLR FEW FEW SCT SCT SCT SCT SCT SCT SCT SCT SCT SCT SCT
FltCat VFR VFR VFR VFR VFR VFR VFR VFR VFR VFR VFR VFR VFR VFR
WX -- -- -- -- -- -- -- -- -- -- -- -- -- --
WDir 90 60 60 100 100 100 100 100 100 100 VRB VRB VRB VRB
WSpd 11 6 6 7 7 7 7 7 7 7 3 3 3 3
WGst -- -- -- -- -- -- -- -- -- -- -- -- -- --
Raw TAF
KDMN 301120Z 3012/3112 06006KT P6SM FEW250
  FM301900 10007KT P6SM SCT250
  FM310200 VRB03KT P6SM SCT250


Raw METAR
KDMN 301553Z AUTO 09011KT 10SM CLR 13/03 A3030 RMK AO2 SLP228 T01280028
KDMN 301453Z AUTO 09004KT 10SM CLR 09/03 A3029 RMK AO2 SLP232 T00890028 53009
KDMN 301353Z AUTO 08005KT 10SM CLR 04/01 A3028 RMK AO2 SLP229 T00440011

METAR Board
Radar Display
Forecast Discussion
For situational awareness. Not to be used for flight planning purposes.